createdAt,value
2024-02-18T00:04:29.501Z,101272.09
2024-02-18T00:09:32.860Z,101271.16
2024-02-18T00:14:37.572Z,101276.28
2024-02-18T00:19:40.986Z,101261.75
2024-02-18T00:24:44.366Z,101267.28
2024-02-18T00:29:48.968Z,101255.50
2024-02-18T00:34:52.249Z,101250.94
2024-02-18T00:39:55.498Z,101255.50
2024-02-18T00:45:00.261Z,101253.75
2024-02-18T00:50:03.606Z,101244.09
2024-02-18T00:55:08.342Z,101237.94
2024-02-18T01:00:14.231Z,101239.84
2024-02-18T01:05:17.403Z,101231.75
2024-02-18T01:10:20.843Z,101230.09
2024-02-18T01:15:25.483Z,101237.47
2024-02-18T01:20:28.966Z,101225.19
2024-02-18T01:25:32.638Z,101228.50
2024-02-18T01:30:37.416Z,101218.19
2024-02-18T01:35:40.856Z,101216.91
2024-02-18T01:40:44.130Z,101211.22
2024-02-18T01:45:49.317Z,101215.69
2024-02-18T01:50:52.870Z,101207.78
2024-02-18T01:55:57.251Z,101200.31
2024-02-18T02:01:02.810Z,101199.34
2024-02-18T02:06:08.016Z,101201.47
2024-02-18T02:11:11.585Z,101200.50
2024-02-18T02:16:16.775Z,101200.50
2024-02-18T02:21:20.878Z,101197.81
2024-02-18T02:26:26.430Z,101186.53
2024-02-18T02:31:31.257Z,101194.53
2024-02-18T02:36:34.606Z,101182.47
2024-02-18T02:41:38.854Z,101182.56
2024-02-18T02:46:43.550Z,101178.91
2024-02-18T02:51:46.895Z,101170.41
2024-02-18T02:56:50.344Z,101169.63
2024-02-18T03:01:55.035Z,101168.88
2024-02-18T03:06:58.453Z,101164.91
2024-02-18T03:12:01.844Z,101159.97
2024-02-18T03:17:06.653Z,101160.75
2024-02-18T03:22:09.954Z,101153.19
2024-02-18T03:27:13.458Z,101153.78
2024-02-18T03:32:18.095Z,101142.94
2024-02-18T03:37:21.334Z,101141.56
2024-02-18T03:42:24.611Z,101140.97
2024-02-18T03:47:29.302Z,101134.97
2024-02-18T03:52:32.798Z,101128.78
2024-02-18T03:57:36.075Z,101122.03
2024-02-18T04:02:42.317Z,101112.75
2024-02-18T04:07:45.535Z,101118.56
2024-02-18T04:12:49.141Z,101119.88
2024-02-18T04:17:55.286Z,101121.47
2024-02-18T04:22:58.513Z,101106.97
2024-02-18T04:28:02.916Z,101109.22
2024-02-18T04:33:07.855Z,101097.16
2024-02-18T04:38:11.120Z,101093.94
2024-02-18T04:43:14.303Z,101094.28
2024-02-18T04:48:18.976Z,101093.69
2024-02-18T04:53:22.380Z,101092.72
2024-02-18T04:58:25.721Z,101085.53
2024-02-18T05:03:30.531Z,101083.69
2024-02-18T05:08:34.146Z,101072.94
2024-02-18T05:13:37.617Z,101067.69
2024-02-18T05:18:42.760Z,101063.44
2024-02-18T05:23:46.355Z,101060.91
2024-02-18T05:28:49.605Z,101056.03
2024-02-18T05:33:55.137Z,101054.56
2024-02-18T05:38:58.633Z,101045.97
2024-02-18T05:44:01.937Z,101045.63
2024-02-18T05:49:07.069Z,101049.63
2024-02-18T05:54:10.427Z,101035.00
2024-02-18T05:59:13.736Z,101039.75
2024-02-18T06:04:18.447Z,101048.72
2024-02-18T06:09:21.909Z,101035.66
2024-02-18T06:14:25.462Z,101033.47
2024-02-18T06:19:30.402Z,101029.38
2024-02-18T06:24:33.929Z,101035.47
2024-02-18T06:29:38.603Z,101028.53
2024-02-18T06:34:43.414Z,101035.09
2024-02-18T06:39:46.938Z,101020.75
2024-02-18T06:44:50.219Z,101016.75
2024-02-18T06:49:55.221Z,101016.44
2024-02-18T06:54:58.539Z,101013.00
2024-02-18T07:00:01.710Z,101016.63
2024-02-18T07:05:07.132Z,101007.59
2024-02-18T07:10:10.507Z,101013.03
2024-02-18T07:15:13.731Z,101010.13
2024-02-18T07:20:18.545Z,101003.78
2024-02-18T07:25:22.027Z,100986.78
2024-02-18T07:30:25.324Z,100990.56
2024-02-18T07:35:30.392Z,100981.97
2024-02-18T07:40:33.700Z,100985.63
2024-02-18T07:45:37.061Z,100979.19
2024-02-18T07:50:42.286Z,100976.84
2024-02-18T07:55:45.577Z,100972.91
2024-02-18T08:00:49.280Z,100978.50
2024-02-18T08:05:54.275Z,100978.78
2024-02-18T08:10:57.570Z,100965.84
2024-02-18T08:16:00.880Z,100967.66
2024-02-18T08:21:05.744Z,100959.75
2024-02-18T08:26:09.497Z,100949.22
2024-02-18T08:31:13.223Z,100959.81
2024-02-18T08:36:18.286Z,100947.44
2024-02-18T08:41:22.172Z,100944.50
2024-02-18T08:46:25.445Z,100949.72
2024-02-18T08:51:30.345Z,100947.78
2024-02-18T08:56:33.693Z,100947.38
2024-02-18T09:01:37.060Z,100950.84
2024-02-18T09:06:41.862Z,100952.78
2024-02-18T09:11:45.262Z,100948.88
2024-02-18T09:16:49.106Z,100948.78
2024-02-18T09:21:53.795Z,100936.38
2024-02-18T09:26:57.070Z,100922.53
2024-02-18T09:32:00.546Z,100919.41
2024-02-18T09:37:06.070Z,100908.03
2024-02-18T09:42:10.919Z,100898.50
2024-02-18T09:47:16.012Z,100900.66
2024-02-18T09:52:22.050Z,100894.81
2024-02-18T09:57:25.439Z,100888.31
2024-02-18T10:02:29.690Z,100873.34
2024-02-18T10:07:36.684Z,100866.63
2024-02-18T10:12:41.408Z,100859.69
2024-02-18T10:17:44.794Z,100836.34
2024-02-18T10:22:49.892Z,100829.84
2024-02-18T10:27:58.095Z,100810.78
2024-02-18T10:33:01.459Z,100806.59
2024-02-18T10:38:11.600Z,100800.50
2024-02-18T10:43:20.540Z,100809.03
2024-02-18T10:48:27.809Z,100800.94
2024-02-18T10:53:36.446Z,100794.19
2024-02-18T10:58:51.525Z,100778.31
2024-02-18T11:04:01.082Z,100772.94
2024-02-18T11:09:09.914Z,100751.41
2024-02-18T11:14:15.247Z,100744.13
2024-02-18T11:19:20.174Z,100740.44
2024-02-18T11:24:26.205Z,100742.16
2024-02-18T11:29:29.607Z,100737.13
2024-02-18T11:34:33.182Z,100725.91
2024-02-18T11:39:42.266Z,100714.94
2024-02-18T11:44:46.394Z,100699.03
2024-02-18T11:49:49.850Z,100696.31
2024-02-18T11:54:54.493Z,100676.50
2024-02-18T11:59:58.190Z,100673.06
2024-02-18T12:05:02.393Z,100656.66
2024-02-18T12:10:08.235Z,100659.84
2024-02-18T12:15:11.643Z,100649.50
2024-02-18T12:20:14.904Z,100651.22
2024-02-18T12:25:22.052Z,100637.69
2024-02-18T12:30:26.328Z,100631.75
2024-02-18T12:35:29.728Z,100625.19
2024-02-18T12:40:35.592Z,100620.19
2024-02-18T12:45:45.018Z,100615.56
2024-02-18T12:51:09.629Z,100616.53
2024-02-18T12:56:16.604Z,100608.75
2024-02-18T13:01:20.745Z,100603.63
2024-02-18T13:06:24.340Z,100601.44
2024-02-18T13:11:29.328Z,100572.25
2024-02-18T13:16:32.697Z,100562.50
2024-02-18T13:21:36.253Z,100550.44
2024-02-18T13:26:40.829Z,100531.69
2024-02-18T13:31:44.362Z,100509.47
2024-02-18T13:36:50.973Z,100494.94
2024-02-18T13:41:57.538Z,100483.56
2024-02-18T13:47:02.503Z,100466.78
2024-02-18T13:52:05.919Z,100445.06
2024-02-18T13:57:10.476Z,100446.53
2024-02-18T14:02:13.788Z,100459.09
2024-02-18T14:07:20.900Z,100438.91
2024-02-18T14:12:25.470Z,100434.97
2024-02-18T14:17:28.707Z,100433.13
2024-02-18T14:22:32.577Z,100420.72
2024-02-18T14:27:37.349Z,100413.97
2024-02-18T14:32:40.833Z,100424.84
2024-02-18T14:37:44.257Z,100433.38
2024-02-18T14:42:50.171Z,100418.22
2024-02-18T14:47:53.991Z,100397.91
2024-02-18T14:52:57.228Z,100387.19
2024-02-18T14:58:01.927Z,100382.50
2024-02-18T15:03:05.905Z,100382.06
2024-02-18T15:08:09.215Z,100392.75
2024-02-18T15:13:15.547Z,100397.09
2024-02-18T15:18:19.102Z,100392.56
2024-02-18T15:23:22.332Z,100384.72
2024-02-18T15:28:26.855Z,100384.03
2024-02-18T15:33:30.561Z,100384.16
2024-02-18T15:38:33.716Z,100377.44
2024-02-18T15:43:39.761Z,100360.66
2024-02-18T15:48:43.089Z,100352.28
2024-02-18T15:53:46.546Z,100327.94
2024-02-18T15:58:51.420Z,100305.69
2024-02-18T16:03:54.999Z,100313.81
2024-02-18T16:08:58.120Z,100317.97
2024-02-18T16:14:02.547Z,100325.63
2024-02-18T16:19:06.185Z,100320.06
2024-02-18T16:24:09.350Z,100314.28
2024-02-18T16:29:13.918Z,100310.59
2024-02-18T16:34:17.148Z,100306.28
2024-02-18T16:39:20.420Z,100301.63
2024-02-18T16:44:25.116Z,100282.44
2024-02-18T16:49:28.969Z,100277.41
2024-02-18T16:54:32.643Z,100269.03
2024-02-18T16:59:39.598Z,100276.78
2024-02-18T17:04:42.855Z,100282.19
2024-02-18T17:09:46.123Z,100265.97
2024-02-18T17:14:50.687Z,100261.19
2024-02-18T17:19:54.125Z,100252.22
2024-02-18T17:24:57.388Z,100244.81
2024-02-18T17:30:02.102Z,100242.88
2024-02-18T17:35:06.112Z,100233.63
2024-02-18T17:40:12.206Z,100238.31
2024-02-18T17:45:18.367Z,100219.25
2024-02-18T17:50:21.816Z,100228.13
2024-02-18T17:55:27.449Z,100221.97
2024-02-18T18:00:32.274Z,100225.78
2024-02-18T18:05:36.457Z,100223.94
2024-02-18T18:10:40.011Z,100220.75
2024-02-18T18:15:44.769Z,100212.66
2024-02-18T18:20:48.125Z,100222.59
2024-02-18T18:25:51.515Z,100220.50
2024-02-18T18:30:56.446Z,100208.97
2024-02-18T18:36:01.212Z,100212.66
2024-02-18T18:41:05.165Z,100212.66
2024-02-18T18:46:10.918Z,100212.38
2024-02-18T18:51:14.308Z,100209.56
2024-02-18T18:56:17.765Z,100206.00
2024-02-18T19:01:22.448Z,100198.38
2024-02-18T19:06:25.800Z,100198.66
2024-02-18T19:11:29.185Z,100194.59
2024-02-18T19:16:37.102Z,100188.06
2024-02-18T19:21:41.668Z,100187.09
2024-02-18T19:26:45.193Z,100182.06
2024-02-18T19:31:52.061Z,100176.78
2024-02-18T19:36:55.333Z,100188.81
2024-02-18T19:41:58.573Z,100185.97
2024-02-18T19:47:03.149Z,100182.66
2024-02-18T19:52:06.488Z,100171.38
2024-02-18T19:57:09.744Z,100173.59
2024-02-18T20:02:14.383Z,100161.81
2024-02-18T20:07:17.773Z,100153.94
2024-02-18T20:12:21.003Z,100148.28
2024-02-18T20:17:25.689Z,100158.84
2024-02-18T20:22:28.982Z,100155.38
2024-02-18T20:27:34.449Z,100147.66
2024-02-18T20:32:39.155Z,100161.53
2024-02-18T20:37:42.345Z,100153.44
2024-02-18T20:42:50.848Z,100158.09
2024-02-18T20:47:56.005Z,100182.66
2024-02-18T20:52:59.866Z,100177.78
2024-02-18T20:58:05.388Z,100174.31
2024-02-18T21:03:10.818Z,100182.31
2024-02-18T21:08:14.683Z,100181.94
2024-02-18T21:13:18.156Z,100175.91
2024-02-18T21:18:23.398Z,100174.53
2024-02-18T21:23:26.990Z,100177.09
2024-02-18T21:28:30.331Z,100171.84
2024-02-18T21:33:35.228Z,100175.38
2024-02-18T21:38:38.757Z,100152.44
2024-02-18T21:43:42.348Z,100158.25
2024-02-18T21:48:47.212Z,100157.38
2024-02-18T21:53:50.704Z,100157.19
2024-02-18T21:58:54.011Z,100159.72
2024-02-18T22:03:58.818Z,100150.44
2024-02-18T22:09:02.424Z,100161.56
2024-02-18T22:14:05.665Z,100155.59
2024-02-18T22:19:10.833Z,100161.81
2024-02-18T22:24:14.191Z,100170.53
2024-02-18T22:29:17.406Z,100166.78
2024-02-18T22:34:22.109Z,100171.28
2024-02-18T22:39:25.344Z,100160.16
2024-02-18T22:44:28.680Z,100159.19
2024-02-18T22:49:33.589Z,100152.91
2024-02-18T22:54:37.022Z,100163.38
2024-02-18T22:59:40.266Z,100176.81
2024-02-18T23:04:44.815Z,100176.81
2024-02-18T23:09:47.989Z,100188.47
2024-02-18T23:14:51.445Z,100184.28
2024-02-18T23:19:56.294Z,100184.50
2024-02-18T23:24:59.932Z,100195.38
2024-02-18T23:30:03.510Z,100192.22
2024-02-18T23:35:11.176Z,100188.31
2024-02-18T23:40:15.556Z,100175.56
2024-02-18T23:45:18.945Z,100180.44
2024-02-18T23:50:24.710Z,100185.06
2024-02-18T23:55:28.072Z,100191.03
